createdAt,value
2023-01-02T00:01:00.305Z,4.63
2023-01-02T00:03:27.894Z,6.00
2023-01-02T00:05:56.798Z,5.03
2023-01-02T00:08:24.270Z,4.83
2023-01-02T00:10:53.197Z,5.00
2023-01-02T00:13:21.456Z,5.40
2023-01-02T00:15:48.975Z,4.63
2023-01-02T00:18:16.515Z,5.20
2023-01-02T00:20:43.994Z,5.23
2023-01-02T00:23:12.760Z,5.00
2023-01-02T00:25:40.322Z,5.17
2023-01-02T00:28:07.760Z,5.27
2023-01-02T00:30:38.591Z,4.97
2023-01-02T00:33:06.270Z,5.50
2023-01-02T00:35:33.756Z,4.67
2023-01-02T00:38:01.178Z,5.10
2023-01-02T00:40:29.978Z,5.40
2023-01-02T00:42:57.491Z,5.20
2023-01-02T00:45:25.062Z,5.10
2023-01-02T00:47:52.547Z,5.63
2023-01-02T00:50:20.169Z,6.03
2023-01-02T00:52:47.926Z,5.17
2023-01-02T00:55:15.438Z,5.23
2023-01-02T00:57:44.160Z,4.90
2023-01-02T01:00:16.983Z,5.57
2023-01-02T01:02:47.636Z,5.33
2023-01-02T01:05:15.267Z,4.90
2023-01-02T01:07:42.684Z,4.93
2023-01-02T01:10:10.345Z,5.53
2023-01-02T01:12:37.782Z,5.20
2023-01-02T01:15:08.470Z,5.03
2023-01-02T01:17:35.994Z,4.97
2023-01-02T01:20:03.472Z,5.10
2023-01-02T01:22:30.910Z,4.50
2023-01-02T01:24:58.347Z,4.63
2023-01-02T01:27:25.863Z,6.27
2023-01-02T01:29:54.063Z,4.80
2023-01-02T01:32:22.970Z,4.70
2023-01-02T01:34:50.381Z,4.80
2023-01-02T01:37:17.824Z,5.57
2023-01-02T01:39:45.235Z,4.50
2023-01-02T01:42:14.403Z,5.00
2023-01-02T01:44:45.847Z,5.03
2023-01-02T01:47:19.856Z,5.07
2023-01-02T01:49:52.294Z,5.10
2023-01-02T01:52:23.501Z,4.47
2023-01-02T01:54:57.684Z,4.37
2023-01-02T01:57:29.513Z,4.90
2023-01-02T01:59:58.154Z,4.93
2023-01-02T02:02:28.571Z,5.17
2023-01-02T02:05:00.617Z,4.90
2023-01-02T02:07:28.568Z,5.23
2023-01-02T02:10:01.085Z,4.73
2023-01-02T02:12:30.359Z,4.27
2023-01-02T02:14:57.775Z,4.47
2023-01-02T02:17:34.202Z,4.77
2023-01-02T02:20:14.081Z,5.00
2023-01-02T02:23:20.518Z,4.20
2023-01-02T02:26:21.107Z,4.47
2023-01-02T02:29:27.623Z,4.37
2023-01-02T02:32:06.002Z,3.97
2023-01-02T02:34:40.990Z,4.60
2023-01-02T02:37:18.750Z,4.40
2023-01-02T02:40:01.357Z,4.27
2023-01-02T02:42:40.311Z,4.20
2023-01-02T02:45:15.032Z,4.27
2023-01-02T02:47:50.307Z,4.33
2023-01-02T02:50:25.318Z,4.00
2023-01-02T02:52:58.061Z,4.00
2023-01-02T02:55:30.109Z,4.40
2023-01-02T02:57:59.448Z,4.43
2023-01-02T03:00:27.015Z,3.63
2023-01-02T03:02:55.956Z,4.00
2023-01-02T03:05:30.702Z,4.47
2023-01-02T03:08:06.153Z,4.90
2023-01-02T03:10:44.002Z,4.70
2023-01-02T03:13:18.453Z,4.50
2023-01-02T03:15:54.882Z,4.83
2023-01-02T03:18:35.478Z,4.47
2023-01-02T03:21:08.230Z,4.47
2023-01-02T03:23:40.390Z,4.40
2023-01-02T03:26:08.249Z,4.30
2023-01-02T03:28:38.671Z,4.23
2023-01-02T03:31:10.739Z,4.50
2023-01-02T03:33:44.385Z,4.37
2023-01-02T03:36:17.803Z,4.63
2023-01-02T03:38:52.996Z,4.37
2023-01-02T03:41:24.307Z,4.80
2023-01-02T03:43:57.080Z,4.60
2023-01-02T03:46:33.221Z,4.70
2023-01-02T03:49:07.383Z,4.03
2023-01-02T03:51:35.855Z,4.40
2023-01-02T03:54:03.741Z,5.10
2023-01-02T03:56:41.877Z,4.70
2023-01-02T03:59:16.794Z,4.37
2023-01-02T04:01:50.509Z,4.37
2023-01-02T04:04:27.144Z,5.23
2023-01-02T04:06:59.113Z,4.77
2023-01-02T04:09:30.381Z,5.00
2023-01-02T04:12:02.909Z,4.50
2023-01-02T04:14:35.338Z,4.30
2023-01-02T04:17:05.631Z,4.77
2023-01-02T04:19:39.183Z,4.67
2023-01-02T04:22:11.249Z,4.57
2023-01-02T04:24:43.322Z,4.70
2023-01-02T04:27:14.802Z,4.60
2023-01-02T04:29:42.406Z,5.00
2023-01-02T04:32:15.535Z,4.97
2023-01-02T04:34:46.755Z,4.77
2023-01-02T04:37:28.235Z,4.50
2023-01-02T04:40:00.511Z,4.70
2023-01-02T04:42:28.009Z,4.67
2023-01-02T04:44:55.444Z,4.60
2023-01-02T04:47:22.957Z,4.60
2023-01-02T04:49:51.694Z,4.30
2023-01-02T04:52:19.196Z,4.90
2023-01-02T04:54:46.645Z,4.87
2023-01-02T04:57:14.106Z,4.70
2023-01-02T04:59:41.589Z,4.67
2023-01-02T05:02:09.126Z,4.87
2023-01-02T05:04:36.640Z,5.03
2023-01-02T05:07:05.722Z,5.67
2023-01-02T05:09:33.176Z,4.67
2023-01-02T05:12:00.775Z,4.90
2023-01-02T05:14:30.748Z,5.27
2023-01-02T05:16:58.168Z,4.50
2023-01-02T05:19:25.632Z,4.87
2023-01-02T05:22:10.639Z,4.40
2023-01-02T05:24:39.402Z,4.63
2023-01-02T05:27:06.793Z,4.80
2023-01-02T05:29:34.231Z,5.70
2023-01-02T05:32:01.659Z,5.00
2023-01-02T05:34:29.112Z,4.60
2023-01-02T05:36:56.549Z,4.60
2023-01-02T05:39:24.088Z,4.97
2023-01-02T05:41:52.861Z,4.73
2023-01-02T05:44:20.301Z,5.17
2023-01-02T05:46:47.758Z,4.90
2023-01-02T05:49:15.215Z,5.63
2023-01-02T05:51:42.647Z,5.17
2023-01-02T05:54:10.381Z,4.50
2023-01-02T05:56:37.803Z,5.13
2023-01-02T05:59:09.222Z,5.27
2023-01-02T06:01:37.008Z,4.40
2023-01-02T06:04:04.871Z,4.43
2023-01-02T06:06:34.857Z,4.27
2023-01-02T06:09:02.915Z,4.83
2023-01-02T06:11:30.969Z,4.10
2023-01-02T06:13:58.911Z,4.30
2023-01-02T06:16:28.300Z,4.70
2023-01-02T06:18:56.233Z,4.60
2023-01-02T06:21:24.526Z,4.40
2023-01-02T06:23:55.926Z,4.90
2023-01-02T06:26:27.688Z,5.40
2023-01-02T06:28:58.497Z,4.83
2023-01-02T06:31:29.691Z,4.87
2023-01-02T06:33:58.707Z,4.40
2023-01-02T06:36:27.830Z,4.40
2023-01-02T06:38:55.260Z,5.60
2023-01-02T06:41:22.760Z,3.97
2023-01-02T06:43:51.394Z,4.30
2023-01-02T06:46:20.612Z,4.33
2023-01-02T06:48:49.792Z,4.37
2023-01-02T06:51:19.567Z,4.27
2023-01-02T06:53:47.496Z,4.57
2023-01-02T06:56:17.470Z,4.77
2023-01-02T06:58:44.982Z,4.87
2023-01-02T07:01:16.756Z,4.10
2023-01-02T07:03:44.581Z,4.20
2023-01-02T07:06:15.548Z,4.33
2023-01-02T07:08:44.002Z,3.70
2023-01-02T07:11:14.157Z,4.50
2023-01-02T07:13:43.418Z,4.27
2023-01-02T07:16:13.748Z,4.20
2023-01-02T07:18:41.909Z,4.07
2023-01-02T07:21:11.340Z,3.80
2023-01-02T07:23:41.490Z,4.83
2023-01-02T07:26:09.567Z,3.80
2023-01-02T07:28:37.989Z,4.90
2023-01-02T07:31:09.111Z,4.20
2023-01-02T07:33:36.847Z,4.17
2023-01-02T07:36:07.264Z,4.00
2023-01-02T07:38:35.641Z,3.83
2023-01-02T07:41:04.500Z,3.93
2023-01-02T07:43:31.996Z,3.87
2023-01-02T07:46:04.046Z,4.07
2023-01-02T07:48:31.633Z,3.60
2023-01-02T07:51:01.458Z,5.43
2023-01-02T07:53:29.104Z,4.20
2023-01-02T07:55:57.491Z,5.43
2023-01-02T07:58:26.431Z,3.87
2023-01-02T08:00:58.399Z,3.63
2023-01-02T08:03:29.090Z,3.30
2023-01-02T08:06:02.803Z,3.67
2023-01-02T08:08:30.235Z,3.70
2023-01-02T08:10:57.830Z,3.40
2023-01-02T08:13:26.597Z,4.30
2023-01-02T08:15:54.049Z,3.67
2023-01-02T08:18:21.488Z,3.10
2023-01-02T08:20:48.933Z,3.10
2023-01-02T08:23:16.372Z,3.20
2023-01-02T08:25:43.811Z,3.33
2023-01-02T08:28:11.241Z,3.10
2023-01-02T08:30:42.096Z,3.63
2023-01-02T08:33:09.584Z,3.33
2023-01-02T08:35:38.826Z,3.60
2023-01-02T08:38:06.653Z,3.17
2023-01-02T08:40:34.195Z,3.07
2023-01-02T08:43:01.638Z,3.30
2023-01-02T08:45:29.108Z,3.50
2023-01-02T08:47:57.923Z,3.10
2023-01-02T08:50:25.390Z,2.70
2023-01-02T08:52:52.878Z,2.97
2023-01-02T08:55:20.467Z,4.00
2023-01-02T08:57:47.905Z,3.03
2023-01-02T09:00:16.595Z,3.60
2023-01-02T09:02:44.228Z,3.53
2023-01-02T09:05:13.138Z,5.30
2023-01-02T09:07:40.690Z,4.33
2023-01-02T09:10:09.254Z,5.20
2023-01-02T09:12:36.851Z,5.50
2023-01-02T09:15:04.856Z,4.87
2023-01-02T09:17:32.878Z,4.80
2023-01-02T09:20:00.343Z,4.97
2023-01-02T09:22:29.223Z,4.47
2023-01-02T09:24:56.663Z,3.60
2023-01-02T09:27:24.117Z,3.63
2023-01-02T09:29:53.788Z,3.70
2023-01-02T09:32:21.386Z,3.97
2023-01-02T09:34:50.887Z,3.50
2023-01-02T09:37:18.557Z,3.50
2023-01-02T09:39:47.411Z,3.33
2023-01-02T09:42:16.918Z,3.37
2023-01-02T09:44:48.919Z,3.00
2023-01-02T09:47:21.006Z,3.47
2023-01-02T09:49:52.345Z,3.20
2023-01-02T09:52:22.301Z,3.73
2023-01-02T09:54:51.657Z,2.97
2023-01-02T09:57:36.080Z,2.87
2023-01-02T10:00:09.639Z,2.73
2023-01-02T10:02:49.889Z,2.53
2023-01-02T10:05:53.443Z,2.90
2023-01-02T10:08:32.298Z,2.77
2023-01-02T10:11:13.754Z,3.13
2023-01-02T10:16:39.264Z,2.90
2023-01-02T10:19:15.757Z,3.13
2023-01-02T10:21:45.489Z,4.03
2023-01-02T10:24:16.692Z,3.13
2023-01-02T10:26:49.206Z,3.47
2023-01-02T10:29:24.444Z,3.00
2023-01-02T10:31:56.586Z,3.17
2023-01-02T10:34:25.221Z,3.00
2023-01-02T10:36:53.082Z,2.90
2023-01-02T10:39:23.025Z,3.30
2023-01-02T10:41:54.713Z,2.87
2023-01-02T10:44:27.013Z,2.53
2023-01-02T10:46:55.618Z,2.80
2023-01-02T10:49:25.069Z,2.90
2023-01-02T10:51:58.104Z,3.40
2023-01-02T10:54:25.557Z,2.57
2023-01-02T10:56:55.067Z,2.70
2023-01-02T10:59:25.492Z,3.20
2023-01-02T11:01:54.891Z,3.13
2023-01-02T11:04:25.280Z,3.43
2023-01-02T11:06:56.319Z,3.37
2023-01-02T11:09:26.202Z,2.93
2023-01-02T11:11:56.430Z,2.93
2023-01-02T11:14:28.086Z,3.13
2023-01-02T11:16:58.663Z,3.17
2023-01-02T11:19:29.792Z,2.57
2023-01-02T11:21:58.044Z,2.43
2023-01-02T11:24:28.530Z,2.70
2023-01-02T11:27:01.364Z,2.73
2023-01-02T11:29:32.675Z,2.90
2023-01-02T11:32:02.093Z,3.63
2023-01-02T11:34:34.288Z,2.87
2023-01-02T11:37:04.798Z,3.73
2023-01-02T11:39:34.713Z,2.97
2023-01-02T11:42:34.912Z,3.20
2023-01-02T11:45:08.260Z,3.00
2023-01-02T11:47:40.222Z,3.10
2023-01-02T11:50:08.570Z,3.20
2023-01-02T11:52:42.598Z,3.23
2023-01-02T11:55:26.290Z,3.30
2023-01-02T11:58:01.992Z,3.20
2023-01-02T12:00:33.735Z,2.77
2023-01-02T12:03:06.325Z,3.40
2023-01-02T12:05:42.433Z,3.20
2023-01-02T12:08:20.822Z,3.20
2023-01-02T12:10:57.001Z,4.73
2023-01-02T12:13:52.930Z,3.77
2023-01-02T12:16:30.835Z,3.60
2023-01-02T12:19:11.326Z,3.27
2023-01-02T12:21:46.218Z,2.73
2023-01-02T12:24:43.317Z,3.00
2023-01-02T12:27:18.927Z,3.00
2023-01-02T12:30:09.280Z,3.37
2023-01-02T12:32:59.961Z,3.47
2023-01-02T12:35:47.054Z,2.90
2023-01-02T12:38:22.627Z,3.60
2023-01-02T12:41:01.997Z,2.97
2023-01-02T12:43:52.354Z,3.53
2023-01-02T12:46:36.509Z,2.87
2023-01-02T12:49:19.274Z,3.03
2023-01-02T12:51:57.318Z,3.40
2023-01-02T12:54:45.547Z,4.50
2023-01-02T12:57:22.665Z,3.73
2023-01-02T13:00:12.556Z,3.03
2023-01-02T13:03:20.275Z,3.43
2023-01-02T13:05:54.700Z,2.80
2023-01-02T13:08:27.656Z,2.63
2023-01-02T13:10:57.125Z,3.00
2023-01-02T13:13:28.405Z,3.07
2023-01-02T13:16:03.433Z,3.17
2023-01-02T13:18:59.985Z,3.23
2023-01-02T13:21:33.837Z,3.00
2023-01-02T13:24:02.023Z,3.30
2023-01-02T13:26:31.376Z,3.60
2023-01-02T13:31:46.421Z,2.83
2023-01-02T13:34:23.182Z,3.10
2023-01-02T13:36:58.488Z,7.40
2023-01-02T13:39:30.059Z,5.63
2023-01-02T13:42:18.312Z,12.60
2023-01-02T13:44:48.449Z,8.50
2023-01-02T13:47:25.710Z,3.63
2023-01-02T13:50:08.400Z,2.83
2023-01-02T13:52:36.092Z,3.00
2023-01-02T13:55:31.593Z,12.60
2023-01-02T13:58:24.327Z,4.77
2023-01-02T14:00:55.207Z,3.80
2023-01-02T14:03:37.676Z,3.60
2023-01-02T14:06:31.938Z,3.27
2023-01-02T14:09:11.810Z,3.20
2023-01-02T14:11:57.016Z,3.33
2023-01-02T14:14:33.252Z,3.87
2023-01-02T14:17:14.596Z,3.13
2023-01-02T14:19:43.579Z,3.07
2023-01-02T14:22:15.240Z,3.50
2023-01-02T14:24:44.927Z,4.17
2023-01-02T14:27:23.424Z,3.50
2023-01-02T14:29:53.943Z,3.90
2023-01-02T14:32:25.076Z,4.30
2023-01-02T14:34:55.372Z,3.60
2023-01-02T14:37:34.319Z,3.27
2023-01-02T14:40:11.858Z,3.30
2023-01-02T14:42:58.223Z,3.13
2023-01-02T14:45:28.198Z,2.93
2023-01-02T14:48:01.827Z,4.20
2023-01-02T14:50:34.274Z,4.37
2023-01-02T14:53:10.853Z,2.97
2023-01-02T14:55:42.365Z,3.10
2023-01-02T14:58:20.179Z,3.60
2023-01-02T15:00:50.204Z,3.17
2023-01-02T15:03:27.792Z,3.47
2023-01-02T15:06:00.592Z,3.50
2023-01-02T15:08:37.404Z,3.37
2023-01-02T15:11:35.108Z,3.67
2023-01-02T15:14:04.464Z,2.67
2023-01-02T15:16:35.850Z,3.50
2023-01-02T15:19:03.769Z,3.00
2023-01-02T15:21:31.617Z,2.97
2023-01-02T15:24:01.965Z,2.50
2023-01-02T15:26:33.950Z,2.43
2023-01-02T15:29:04.471Z,2.63
2023-01-02T15:31:32.413Z,2.63
2023-01-02T15:34:01.328Z,2.33
2023-01-02T15:36:35.393Z,1.40
2023-01-02T15:39:08.636Z,1.53
2023-01-02T15:41:43.482Z,1.70
2023-01-02T15:44:30.737Z,1.40
2023-01-02T15:46:59.786Z,2.23
2023-01-02T15:49:27.884Z,1.40
2023-01-02T15:51:57.458Z,1.40
2023-01-02T15:54:27.129Z,2.00
2023-01-02T15:56:54.608Z,1.37
2023-01-02T15:59:27.751Z,1.47
2023-01-02T16:01:55.427Z,1.20
2023-01-02T16:04:27.659Z,1.40
2023-01-02T16:06:56.906Z,1.20
2023-01-02T16:09:28.063Z,1.33
2023-01-02T16:11:58.432Z,1.58
2023-01-02T16:14:33.018Z,1.20
2023-01-02T16:17:04.563Z,1.43
2023-01-02T16:19:36.138Z,1.40
2023-01-02T16:22:15.527Z,2.40
2023-01-02T16:24:48.379Z,3.60
2023-01-02T16:27:24.027Z,3.07
2023-01-02T16:29:53.244Z,3.80
2023-01-02T16:32:26.934Z,4.07
2023-01-02T16:35:03.439Z,5.83
2023-01-02T16:37:36.483Z,2.20
2023-01-02T16:41:00.676Z,2.00
2023-01-02T16:43:30.740Z,1.30
2023-01-02T16:45:58.862Z,0.97
2023-01-02T16:48:29.780Z,1.30
2023-01-02T16:50:59.135Z,1.27
2023-01-02T16:53:29.626Z,1.43
2023-01-02T16:55:58.536Z,1.13
2023-01-02T16:58:26.473Z,1.30
2023-01-02T17:00:55.540Z,0.97
2023-01-02T17:03:25.369Z,2.80
2023-01-02T17:06:02.418Z,1.20
2023-01-02T17:08:31.521Z,0.87
2023-01-02T17:11:00.945Z,1.00
2023-01-02T17:13:29.842Z,1.20
2023-01-02T17:15:57.788Z,1.20
2023-01-02T17:18:25.919Z,1.23
2023-01-02T17:20:53.494Z,1.00
2023-01-02T17:23:21.111Z,0.70
2023-01-02T17:25:48.962Z,0.70
2023-01-02T17:28:18.072Z,0.83
2023-01-02T17:30:49.989Z,1.00
2023-01-02T17:33:18.632Z,1.40
2023-01-02T17:35:46.547Z,0.93
2023-01-02T17:38:14.289Z,1.08
2023-01-02T17:40:41.733Z,1.30
2023-01-02T17:43:09.196Z,1.00
2023-01-02T17:45:38.070Z,0.90
2023-01-02T17:48:11.662Z,1.00
2023-01-02T17:50:41.012Z,1.20
2023-01-02T17:53:08.653Z,1.10
2023-01-02T17:55:36.272Z,1.13
2023-01-02T17:58:04.137Z,0.90
2023-01-02T18:00:31.550Z,0.60
2023-01-02T18:03:00.320Z,1.10
2023-01-02T18:05:27.950Z,0.90
2023-01-02T18:07:55.443Z,0.80
2023-01-02T18:10:25.955Z,1.30
2023-01-02T18:12:56.785Z,1.10
2023-01-02T18:15:24.568Z,0.70
2023-01-02T18:17:53.442Z,1.00
2023-01-02T18:20:23.804Z,1.10
2023-01-02T18:22:51.402Z,1.10
2023-01-02T18:25:20.889Z,1.10
2023-01-02T18:27:48.914Z,0.93
2023-01-02T18:30:20.979Z,0.97
2023-01-02T18:32:49.527Z,0.90
2023-01-02T18:35:55.582Z,0.90
2023-01-02T18:38:19.417Z,1.00
2023-01-02T18:40:47.240Z,0.80
2023-01-02T18:43:23.082Z,1.43
2023-01-02T18:45:54.418Z,0.90
2023-01-02T18:48:23.157Z,1.10
2023-01-02T18:50:57.860Z,0.80
2023-01-02T18:53:30.431Z,0.80
2023-01-02T18:56:03.107Z,1.03
2023-01-02T18:58:40.877Z,1.10
2023-01-02T19:01:23.048Z,1.10
2023-01-02T19:03:56.505Z,0.70
2023-01-02T19:06:25.778Z,0.93
2023-01-02T19:08:56.201Z,1.10
2023-01-02T19:11:51.843Z,1.20
2023-01-02T19:14:22.931Z,1.00
2023-01-02T19:16:57.364Z,1.10
2023-01-02T19:19:26.793Z,1.00
2023-01-02T19:21:55.788Z,1.00
2023-01-02T19:24:30.160Z,0.90
2023-01-02T19:26:59.603Z,1.10
2023-01-02T19:29:28.645Z,1.10
2023-01-02T19:32:02.372Z,1.40
2023-01-02T19:34:40.300Z,1.00
2023-01-02T19:37:35.588Z,1.00
2023-01-02T19:40:14.637Z,1.10
2023-01-02T19:42:46.129Z,1.03
2023-01-02T19:45:17.027Z,1.40
2023-01-02T19:47:44.930Z,1.30
2023-01-02T19:50:14.883Z,1.30
2023-01-02T19:52:42.655Z,0.90
2023-01-02T19:55:12.545Z,1.00
2023-01-02T19:57:40.340Z,1.20
2023-01-02T20:00:12.692Z,1.10
2023-01-02T20:02:41.003Z,1.17
2023-01-02T20:05:09.592Z,1.40
2023-01-02T20:07:37.009Z,0.83
2023-01-02T20:10:05.187Z,1.10
2023-01-02T20:12:35.500Z,1.00
2023-01-02T20:15:05.256Z,1.17
2023-01-02T20:17:33.045Z,1.20
2023-01-02T20:20:00.761Z,2.40
2023-01-02T20:22:28.877Z,2.17
2023-01-02T20:24:56.580Z,1.97
2023-01-02T20:27:24.897Z,1.80
2023-01-02T20:29:56.194Z,1.80
2023-01-02T20:32:24.743Z,1.63
2023-01-02T20:34:52.603Z,1.40
2023-01-02T20:37:21.047Z,0.90
2023-01-02T20:39:49.869Z,1.20
2023-01-02T20:42:18.018Z,0.90
2023-01-02T20:44:45.801Z,1.30
2023-01-02T20:47:14.771Z,1.10
2023-01-02T20:49:42.663Z,1.20
2023-01-02T20:52:10.429Z,1.10
2023-01-02T20:54:38.193Z,0.90
2023-01-02T20:57:05.650Z,1.10
2023-01-02T20:59:33.240Z,1.20
2023-01-02T21:02:00.803Z,1.30
2023-01-02T21:04:36.259Z,1.40
2023-01-02T21:07:04.145Z,1.40
2023-01-02T21:09:31.588Z,1.20
2023-01-02T21:11:58.993Z,1.40
2023-01-02T21:14:26.385Z,1.30
2023-01-02T21:16:54.734Z,1.40
2023-01-02T21:19:22.432Z,1.40
2023-01-02T21:21:51.215Z,1.20
2023-01-02T21:24:18.678Z,1.40
2023-01-02T21:26:46.113Z,1.43
2023-01-02T21:29:13.532Z,1.77
2023-01-02T21:31:41.021Z,1.57
2023-01-02T21:34:08.490Z,1.47
2023-01-02T21:36:37.021Z,1.50
2023-01-02T21:39:05.940Z,1.50
2023-01-02T21:41:50.940Z,1.57
2023-01-02T21:44:18.343Z,1.33
2023-01-02T21:46:45.866Z,1.37
2023-01-02T21:49:13.325Z,1.23
2023-01-02T21:51:40.742Z,1.50
2023-01-02T21:54:09.490Z,1.90
2023-01-02T21:56:36.909Z,1.73
2023-01-02T21:59:04.321Z,1.77
2023-01-02T22:01:32.018Z,2.17
2023-01-02T22:03:59.590Z,1.80
2023-01-02T22:06:33.808Z,1.63
2023-01-02T22:09:01.800Z,1.80
2023-01-02T22:11:48.109Z,1.80
2023-01-02T22:14:15.653Z,1.70
2023-01-02T22:16:43.145Z,1.67
2023-01-02T22:19:10.682Z,1.20
2023-01-02T22:21:38.487Z,1.37
2023-01-02T22:24:06.532Z,1.17
2023-01-02T22:26:36.459Z,1.63
2023-01-02T22:29:04.337Z,1.57
2023-01-02T22:31:32.557Z,1.40
2023-01-02T22:34:00.505Z,1.50
2023-01-02T22:36:31.321Z,1.77
2023-01-02T22:39:26.584Z,2.30
2023-01-02T22:41:51.207Z,1.90
2023-01-02T22:44:22.207Z,1.83
2023-01-02T22:46:52.256Z,1.80
2023-01-02T22:49:23.793Z,1.50
2023-01-02T22:52:09.624Z,1.73
2023-01-02T22:54:37.103Z,1.67
2023-01-02T22:57:10.165Z,1.90
2023-01-02T22:59:37.650Z,1.80
2023-01-02T23:02:05.789Z,2.20
2023-01-02T23:04:33.504Z,2.07
2023-01-02T23:09:49.474Z,1.90
2023-01-02T23:12:18.209Z,2.17
2023-01-02T23:14:45.670Z,2.37
2023-01-02T23:17:31.143Z,2.50
2023-01-02T23:19:58.581Z,2.30
2023-01-02T23:22:26.135Z,2.43
2023-01-02T23:24:54.042Z,2.60
2023-01-02T23:27:23.063Z,2.73
2023-01-02T23:29:50.498Z,2.27
2023-01-02T23:32:18.115Z,2.37
2023-01-02T23:34:45.562Z,2.73
2023-01-02T23:37:13.042Z,3.03
2023-01-02T23:39:40.676Z,2.20
2023-01-02T23:42:08.150Z,2.20
2023-01-02T23:44:38.340Z,2.60
2023-01-02T23:47:10.210Z,2.37
2023-01-02T23:49:40.886Z,2.53
2023-01-02T23:52:08.315Z,2.90
2023-01-02T23:54:35.760Z,2.47
2023-01-02T23:57:03.226Z,2.40
2023-01-02T23:59:30.672Z,2.40
